M/V Lavelle Devall — WCW4022 — position and weather

sailwx.info

Track history (hours):
 
Tides and Currents Weather Stations Pressure Air Temp Water Temp Dewpoint Dewpoint Depression Visibility Wind Speed Wind Dir Waves Ship Positions

M/V Lavelle Devall

Owner: LAVELLE DEVALL INC, Sulphur, LA. More information available from US FCC via Universal Licensing System and Coast Guard Vessel Documentation Center.

Last reported at 2018-Jun-22 07:31 UTC. Time now 2018-Jun-22 07:43 UTC.
Position N 29°37' W 094°58'.

Length 18 m.

Type: Towing. MMSI: 366972290.

Date/timePositionNaut miles runAvg speedWind from/ knotsBaromVisibWave heightAir tempDewpointWater temp
2018-Jun-22 07:31N 29°37' W 094°58'10 7.4
2018-Jun-22 06:11N 29°29' W 094°52'1 7.6
2018-Jun-22 06:00N 29°28' W 094°51'4 7.8
2018-Jun-22 05:30N 29°24' W 094°49'4 7.5
2018-Jun-22 05:00N 29°21' W 094°47'3 5.3
2018-Jun-22 04:30N 29°19' W 094°48'1 1.6
2018-Jun-22 03:56N 29°18' W 094°49'0 0.0
2018-Jun-22 03:29N 29°18' W 094°49'0 0.0
2018-Jun-22 02:59N 29°18' W 094°49'0 0.0
2018-Jun-22 02:29N 29°18' W 094°49'0 0.0
2018-Jun-22 01:59N 29°18' W 094°49'0 0.0
2018-Jun-22 01:29N 29°18' W 094°49'0 0.0
2018-Jun-22 00:59N 29°18' W 094°49'0 0.0
2018-Jun-22 00:29N 29°18' W 094°49'0 0.0
2018-Jun-21 23:56N 29°18' W 094°49'0 0.0
2018-Jun-21 23:29N 29°18' W 094°49'2 4.8
2018-Jun-21 23:00N 29°19' W 094°47'4 7.6
2018-Jun-21 22:30N 29°23' W 094°49'4 8.1
2018-Jun-21 22:00N 29°27' W 094°51'5 7.5
2018-Jun-21 21:23N 29°31' W 094°53'3 7.3
2018-Jun-21 21:00N 29°33' W 094°55'4 6.8
2018-Jun-21 20:27N 29°36' W 094°57'3 7.0
2018-Jun-21 20:00N 29°39' W 094°58'4 6.7
2018-Jun-21 19:27N 29°42' W 095°01'2 0.0
2018-Jun-19 17:59N 29°44' W 095°02'4 7.2
2018-Jun-19 17:30N 29°41' W 094°59'4 8.2
2018-Jun-19 17:00N 29°37' W 094°57'10 8.2
2018-Jun-19 15:48N 29°29' W 094°51'4 8.4
2018-Jun-19 15:21N 29°25' W 094°50'3 9.3
2018-Jun-19 15:00N 29°22' W 094°48'4 6.6
2018-Jun-19 14:28N 29°20' W 094°51'4 7.5
2018-Jun-19 13:59N 29°17' W 094°54'4 7.6
2018-Jun-19 13:30N 29°17' W 094°58'4 7.6
2018-Jun-19 13:00N 29°14' W 095°01'4 7.3
2018-Jun-19 12:30N 29°12' W 095°04'2 4.1
2018-Jun-19 11:58N 29°10' W 095°06'0 0.1
2018-Jun-19 11:28N 29°10' W 095°06'0 0.2
2018-Jun-19 10:59N 29°10' W 095°06'0 0.0
2018-Jun-19 10:29N 29°10' W 095°06'0 0.0
2018-Jun-19 09:59N 29°10' W 095°06'0 0.0
2018-Jun-19 09:29N 29°10' W 095°06'0 0.0
2018-Jun-19 08:59N 29°10' W 095°06'0 0.0
2018-Jun-19 08:29N 29°10' W 095°06'0 0.0
2018-Jun-19 07:59N 29°10' W 095°06'0 0.0
2018-Jun-19 07:29N 29°10' W 095°06'0 0.0
2018-Jun-19 06:59N 29°10' W 095°06'0 0.0
2018-Jun-19 06:29N 29°10' W 095°06'0 0.0
2018-Jun-19 05:59N 29°10' W 095°06'0 0.0
2018-Jun-19 05:29N 29°10' W 095°06'0 0.0
2018-Jun-19 04:59N 29°10' W 095°06'0 0.0
2018-Jun-19 04:29N 29°10' W 095°06'0 0.0
2018-Jun-19 03:59N 29°10' W 095°06'0 0.0
2018-Jun-19 03:29N 29°10' W 095°06'0 0.0
2018-Jun-19 02:59N 29°10' W 095°06'2 3.2
2018-Jun-19 02:30N 29°10' W 095°08'3 6.8
2018-Jun-19 02:00N 29°12' W 095°11'3 5.9
2018-Jun-19 01:30N 29°14' W 095°13'0 0.3
2018-Jun-19 00:58N 29°14' W 095°13'0 0.2
2018-Jun-19 00:30N 29°14' W 095°13'2 3.0
2018-Jun-18 23:58N 29°13' W 095°13'0 0.0
2018-Jun-18 23:28N 29°13' W 095°13'0 0.0
2018-Jun-18 22:55N 29°13' W 095°13'0 0.0
2018-Jun-18 22:25N 29°13' W 095°13'0 0.0
2018-Jun-18 21:58N 29°13' W 095°13'0 0.0
2018-Jun-18 21:28N 29°13' W 095°13'0 0.0
2018-Jun-18 21:00N 29°13' W 095°13'0 0.0
2018-Jun-18 20:30N 29°13' W 095°13'0 0.0
2018-Jun-18 19:57N 29°13' W 095°13'0 0.0
2018-Jun-18 19:30N 29°13' W 095°13'0 0.0
2018-Jun-18 18:58N 29°13' W 095°13'0 0.0
2018-Jun-18 18:28N 29°13' W 095°13'0 0.0
2018-Jun-18 17:57N 29°13' W 095°13'0 0.0
2018-Jun-18 17:30N 29°13' W 095°13'0 0.0
2018-Jun-18 17:00N 29°13' W 095°13'0 0.3
2018-Jun-18 16:28N 29°13' W 095°12'2 3.7
2018-Jun-18 16:00N 29°14' W 095°13'1 1.7
2018-Jun-18 15:30N 29°14' W 095°13'3 6.5
2018-Jun-18 15:00N 29°12' W 095°10'3 5.7
2018-Jun-18 14:30N 29°10' W 095°07'3 5.4
2018-Jun-18 14:00N 29°11' W 095°05'3 6.4
2018-Jun-18 13:30N 29°13' W 095°02'3 6.6
2018-Jun-18 13:01N 29°16' W 094°59'3 6.6
2018-Jun-18 12:30N 29°17' W 094°56'3 6.3
2018-Jun-18 12:00N 29°18' W 094°53'3 6.8
2018-Jun-18 11:30N 29°21' W 094°49'1 1.1
2018-Jun-18 10:59N 29°21' W 094°49'2 3.1
2018-Jun-18 10:30N 29°22' W 094°48'3 6.7
2018-Jun-18 09:59N 29°26' W 094°50'9 7.7
2018-Jun-18 08:49N 29°34' W 094°55'3 7.5
2018-Jun-18 08:21N 29°36' W 094°57'3 7.9
2018-Jun-18 08:00N 29°39' W 094°58'4 0.3
2018-Jun-17 17:07N 29°42' W 095°01'1 8.4
2018-Jun-17 16:58N 29°42' W 094°60'4 8.5
2018-Jun-17 16:30N 29°38' W 094°58'4 8.4
2018-Jun-17 16:00N 29°35' W 094°56'9 9.2
2018-Jun-17 15:04N 29°27' W 094°51'210.0
2018-Jun-17 14:52N 29°25' W 094°50'6 7.7
2018-Jun-17 14:06N 29°20' W 094°51'1 7.5
2018-Jun-17 13:59N 29°19' W 094°52'3 6.4
2018-Jun-17 13:29N 29°17' W 094°55'3 6.6
2018-Jun-17 13:00N 29°17' W 094°58'13 1.4
2018-Jun-17 03:22N 29°14' W 095°13'0 0.0
2018-Jun-17 02:58N 29°14' W 095°13'0 0.0
2018-Jun-17 02:28N 29°14' W 095°13'0 0.0
2018-Jun-17 01:55N 29°14' W 095°13'1 1.7
2018-Jun-17 01:30N 29°14' W 095°13'3 5.3
2018-Jun-17 01:00N 29°12' W 095°11'3 5.5
2018-Jun-17 00:30N 29°10' W 095°08'3 5.5
2018-Jun-17 00:00N 29°11' W 095°05'3 6.6
2018-Jun-16 23:30N 29°13' W 095°02'3 6.3
2018-Jun-16 23:00N 29°15' W 094°60'3 6.6
2018-Jun-16 22:30N 29°17' W 094°57'3 6.6
2018-Jun-16 22:00N 29°18' W 094°53'4 7.0
2018-Jun-16 21:29N 29°20' W 094°50'3 5.9
2018-Jun-16 21:00N 29°23' W 094°49'12 6.9
2018-Jun-16 19:12N 29°34' W 094°55'3 7.1
2018-Jun-16 18:49N 29°36' W 094°57'2 7.1
2018-Jun-16 18:30N 29°38' W 094°58'4 7.0
2018-Jun-16 18:00N 29°41' W 094°59'1 0.1
2018-Jun-15 23:35N 29°42' W 095°01'1 7.9
2018-Jun-15 23:28N 29°42' W 094°60'4 7.7
2018-Jun-15 23:00N 29°39' W 094°58'4 8.0
2018-Jun-15 22:28N 29°35' W 094°56'9 8.2
2018-Jun-15 21:23N 29°27' W 094°51'4 8.1
2018-Jun-15 20:54N 29°24' W 094°49'3 6.7
2018-Jun-15 20:26N 29°21' W 094°50'3 7.8
2018-Jun-15 20:00N 29°18' W 094°53'3 6.8
2018-Jun-15 19:31N 29°17' W 094°56'3 6.4
2018-Jun-15 19:00N 29°16' W 094°60'4 7.4
2018-Jun-15 18:31N 29°13' W 095°02'3 6.6
2018-Jun-15 18:01N 29°11' W 095°05'3 5.4
2018-Jun-15 17:30N 29°11' W 095°08'3 7.0
2018-Jun-15 17:00N 29°13' W 095°12'2 4.5
2018-Jun-15 16:28N 29°15' W 095°13'0 0.1
2018-Jun-15 16:00N 29°14' W 095°13'0 0.0
2018-Jun-15 14:57N 29°14' W 095°13'0 0.0
2018-Jun-15 14:30N 29°14' W 095°13'0 0.0
2018-Jun-15 14:00N 29°14' W 095°13'0 0.0
2018-Jun-15 13:30N 29°14' W 095°13'0 0.0
2018-Jun-15 13:00N 29°14' W 095°13'0 0.0
2018-Jun-15 12:30N 29°14' W 095°13'0 0.0
2018-Jun-15 12:00N 29°14' W 095°13'0 0.0
2018-Jun-15 11:30N 29°14' W 095°13'0 0.0
2018-Jun-15 11:00N 29°14' W 095°13'0 0.0
2018-Jun-15 10:30N 29°14' W 095°13'0 0.0
2018-Jun-15 09:57N 29°14' W 095°13'0 0.0
2018-Jun-15 09:30N 29°14' W 095°13'0 0.0
2018-Jun-15 09:00N 29°14' W 095°13'0 0.0
2018-Jun-15 08:30N 29°14' W 095°13'0 0.3
2018-Jun-15 08:00N 29°14' W 095°13'2 3.3
2018-Jun-15 07:30N 29°13' W 095°13'3 5.2
2018-Jun-15 07:00N 29°12' W 095°10'2 4.9
2018-Jun-15 06:30N 29°10' W 095°08'3 5.3
2018-Jun-15 06:00N 29°11' W 095°05'3 6.2
2018-Jun-15 05:30N 29°13' W 095°02'2 3.4
2018-Jun-15 05:00N 29°14' W 095°01'3 5.6
2018-Jun-15 04:30N 29°16' W 094°59'3 5.2
2018-Jun-15 04:00N 29°17' W 094°56'2 5.0
2018-Jun-15 03:30N 29°17' W 094°54'2 4.5
2018-Jun-15 03:00N 29°19' W 094°52'3 5.9
2018-Jun-15 02:30N 29°21' W 094°49'3 6.0
2018-Jun-15 02:00N 29°24' W 094°49'10 8.0
2018-Jun-15 00:41N 29°33' W 094°55'2 7.4
2018-Jun-15 00:28N 29°34' W 094°56'4 7.4
2018-Jun-14 23:58N 29°38' W 094°58'4 7.7
2018-Jun-14 23:30N 29°41' W 094°59'2 0.1
2018-Jun-14 05:26N 29°42' W 095°01'3 6.1
2018-Jun-14 04:52N 29°41' W 094°57'2 3.4
2018-Jun-14 04:18N 29°41' W 094°55'1 2.4
2018-Jun-14 04:00N 29°42' W 094°55'1 2.2
2018-Jun-14 03:30N 29°43' W 094°56'1 0.1
2018-Jun-13 17:07N 29°43' W 094°57'2 2.1
2018-Jun-13 16:13N 29°42' W 094°55'2 4.5
2018-Jun-13 15:50N 29°40' W 094°56'2 5.5
2018-Jun-13 15:25N 29°41' W 094°58'1 2.5
2018-Jun-13 15:01N 29°42' W 094°59'2 0.2
2018-Jun-13 05:51N 29°42' W 095°01'2 6.4
2018-Jun-13 05:30N 29°41' W 094°59'3 6.4
2018-Jun-13 05:00N 29°38' W 094°58'4 6.7
2018-Jun-13 04:29N 29°35' W 094°56'3 6.7
2018-Jun-13 04:00N 29°32' W 094°54'3 5.8
2018-Jun-13 03:30N 29°30' W 094°52'3 5.6
2018-Jun-13 02:58N 29°27' W 094°51'3 5.5
2018-Jun-13 02:29N 29°25' W 094°49'2 4.9
2018-Jun-13 01:59N 29°22' W 094°48'2 4.0
2018-Jun-13 01:30N 29°21' W 094°47'3 5.4
2018-Jun-13 01:00N 29°19' W 094°48'1 1.4
2018-Jun-13 00:28N 29°18' W 094°49'2 3.9
2018-Jun-13 00:00N 29°19' W 094°47'3 6.4
2018-Jun-12 23:30N 29°22' W 094°48'13 7.7
2018-Jun-12 21:53N 29°33' W 094°55'3 7.0
2018-Jun-12 21:30N 29°35' W 094°56'4 7.1
2018-Jun-12 21:00N 29°39' W 094°58'4 6.8
2018-Jun-12 20:21N 29°42' W 095°01'  
Track history (hours):
 
Tides and Currents Weather Stations Pressure Air Temp Water Temp Dewpoint Dewpoint Depression Visibility Wind Speed Wind Dir Waves Ship Positions

M/V Lavelle Devall

Owner: LAVELLE DEVALL INC, Sulphur, LA. More information available from US FCC via Universal Licensing System and Coast Guard Vessel Documentation Center.

Last reported at 2018-Jun-22 07:31 UTC. Time now 2018-Jun-22 07:43 UTC.
Position N 29°37' W 094°58'.

Length 18 m.

Type: Towing. MMSI: 366972290.

Date/timePositionNaut miles runAvg speedWind from/ knotsBaromVisibWave heightAir tempDewpointWater temp
2018-Jun-22 07:31N 29°37' W 094°58'10 7.4
2018-Jun-22 06:11N 29°29' W 094°52'1 7.6
2018-Jun-22 06:00N 29°28' W 094°51'4 7.8
2018-Jun-22 05:30N 29°24' W 094°49'4 7.5
2018-Jun-22 05:00N 29°21' W 094°47'3 5.3
2018-Jun-22 04:30N 29°19' W 094°48'1 1.6
2018-Jun-22 03:56N 29°18' W 094°49'0 0.0
2018-Jun-22 03:29N 29°18' W 094°49'0 0.0
2018-Jun-22 02:59N 29°18' W 094°49'0 0.0
2018-Jun-22 02:29N 29°18' W 094°49'0 0.0
2018-Jun-22 01:59N 29°18' W 094°49'0 0.0
2018-Jun-22 01:29N 29°18' W 094°49'0 0.0
2018-Jun-22 00:59N 29°18' W 094°49'0 0.0
2018-Jun-22 00:29N 29°18' W 094°49'0 0.0
2018-Jun-21 23:56N 29°18' W 094°49'0 0.0
2018-Jun-21 23:29N 29°18' W 094°49'2 4.8
2018-Jun-21 23:00N 29°19' W 094°47'4 7.6
2018-Jun-21 22:30N 29°23' W 094°49'4 8.1
2018-Jun-21 22:00N 29°27' W 094°51'5 7.5
2018-Jun-21 21:23N 29°31' W 094°53'3 7.3
2018-Jun-21 21:00N 29°33' W 094°55'4 6.8
2018-Jun-21 20:27N 29°36' W 094°57'3 7.0
2018-Jun-21 20:00N 29°39' W 094°58'4 6.7
2018-Jun-21 19:27N 29°42' W 095°01'2 0.0
2018-Jun-19 17:59N 29°44' W 095°02'4 7.2
2018-Jun-19 17:30N 29°41' W 094°59'4 8.2
2018-Jun-19 17:00N 29°37' W 094°57'10 8.2
2018-Jun-19 15:48N 29°29' W 094°51'4 8.4
2018-Jun-19 15:21N 29°25' W 094°50'3 9.3
2018-Jun-19 15:00N 29°22' W 094°48'4 6.6
2018-Jun-19 14:28N 29°20' W 094°51'4 7.5
2018-Jun-19 13:59N 29°17' W 094°54'4 7.6
2018-Jun-19 13:30N 29°17' W 094°58'4 7.6
2018-Jun-19 13:00N 29°14' W 095°01'4 7.3
2018-Jun-19 12:30N 29°12' W 095°04'2 4.1
2018-Jun-19 11:58N 29°10' W 095°06'0 0.1
2018-Jun-19 11:28N 29°10' W 095°06'0 0.2
2018-Jun-19 10:59N 29°10' W 095°06'0 0.0
2018-Jun-19 10:29N 29°10' W 095°06'0 0.0
2018-Jun-19 09:59N 29°10' W 095°06'0 0.0
2018-Jun-19 09:29N 29°10' W 095°06'0 0.0
2018-Jun-19 08:59N 29°10' W 095°06'0 0.0
2018-Jun-19 08:29N 29°10' W 095°06'0 0.0
2018-Jun-19 07:59N 29°10' W 095°06'0 0.0
2018-Jun-19 07:29N 29°10' W 095°06'0 0.0
2018-Jun-19 06:59N 29°10' W 095°06'0 0.0
2018-Jun-19 06:29N 29°10' W 095°06'0 0.0
2018-Jun-19 05:59N 29°10' W 095°06'0 0.0
2018-Jun-19 05:29N 29°10' W 095°06'0 0.0
2018-Jun-19 04:59N 29°10' W 095°06'0 0.0
2018-Jun-19 04:29N 29°10' W 095°06'0 0.0
2018-Jun-19 03:59N 29°10' W 095°06'0 0.0
2018-Jun-19 03:29N 29°10' W 095°06'0 0.0
2018-Jun-19 02:59N 29°10' W 095°06'2 3.2
2018-Jun-19 02:30N 29°10' W 095°08'3 6.8
2018-Jun-19 02:00N 29°12' W 095°11'3 5.9
2018-Jun-19 01:30N 29°14' W 095°13'0 0.3
2018-Jun-19 00:58N 29°14' W 095°13'0 0.2
2018-Jun-19 00:30N 29°14' W 095°13'2 3.0
2018-Jun-18 23:58N 29°13' W 095°13'0 0.0
2018-Jun-18 23:28N 29°13' W 095°13'0 0.0
2018-Jun-18 22:55N 29°13' W 095°13'0 0.0
2018-Jun-18 22:25N 29°13' W 095°13'0 0.0
2018-Jun-18 21:58N 29°13' W 095°13'0 0.0
2018-Jun-18 21:28N 29°13' W 095°13'0 0.0
2018-Jun-18 21:00N 29°13' W 095°13'0 0.0
2018-Jun-18 20:30N 29°13' W 095°13'0 0.0
2018-Jun-18 19:57N 29°13' W 095°13'0 0.0
2018-Jun-18 19:30N 29°13' W 095°13'0 0.0
2018-Jun-18 18:58N 29°13' W 095°13'0 0.0
2018-Jun-18 18:28N 29°13' W 095°13'0 0.0
2018-Jun-18 17:57N 29°13' W 095°13'0 0.0
2018-Jun-18 17:30N 29°13' W 095°13'0 0.0
2018-Jun-18 17:00N 29°13' W 095°13'0 0.3
2018-Jun-18 16:28N 29°13' W 095°12'2 3.7
2018-Jun-18 16:00N 29°14' W 095°13'1 1.7
2018-Jun-18 15:30N 29°14' W 095°13'3 6.5
2018-Jun-18 15:00N 29°12' W 095°10'3 5.7
2018-Jun-18 14:30N 29°10' W 095°07'3 5.4
2018-Jun-18 14:00N 29°11' W 095°05'3 6.4
2018-Jun-18 13:30N 29°13' W 095°02'3 6.6
2018-Jun-18 13:01N 29°16' W 094°59'3 6.6
2018-Jun-18 12:30N 29°17' W 094°56'3 6.3
2018-Jun-18 12:00N 29°18' W 094°53'3 6.8
2018-Jun-18 11:30N 29°21' W 094°49'1 1.1
2018-Jun-18 10:59N 29°21' W 094°49'2 3.1
2018-Jun-18 10:30N 29°22' W 094°48'3 6.7
2018-Jun-18 09:59N 29°26' W 094°50'9 7.7
2018-Jun-18 08:49N 29°34' W 094°55'3 7.5
2018-Jun-18 08:21N 29°36' W 094°57'3 7.9
2018-Jun-18 08:00N 29°39' W 094°58'4 0.3
2018-Jun-17 17:07N 29°42' W 095°01'1 8.4
2018-Jun-17 16:58N 29°42' W 094°60'4 8.5
2018-Jun-17 16:30N 29°38' W 094°58'4 8.4
2018-Jun-17 16:00N 29°35' W 094°56'9 9.2
2018-Jun-17 15:04N 29°27' W 094°51'210.0
2018-Jun-17 14:52N 29°25' W 094°50'6 7.7
2018-Jun-17 14:06N 29°20' W 094°51'1 7.5
2018-Jun-17 13:59N 29°19' W 094°52'3 6.4
2018-Jun-17 13:29N 29°17' W 094°55'3 6.6
2018-Jun-17 13:00N 29°17' W 094°58'13 1.4
2018-Jun-17 03:22N 29°14' W 095°13'0 0.0
2018-Jun-17 02:58N 29°14' W 095°13'0 0.0
2018-Jun-17 02:28N 29°14' W 095°13'0 0.0
2018-Jun-17 01:55N 29°14' W 095°13'1 1.7
2018-Jun-17 01:30N 29°14' W 095°13'3 5.3
2018-Jun-17 01:00N 29°12' W 095°11'3 5.5
2018-Jun-17 00:30N 29°10' W 095°08'3 5.5
2018-Jun-17 00:00N 29°11' W 095°05'3 6.6
2018-Jun-16 23:30N 29°13' W 095°02'3 6.3
2018-Jun-16 23:00N 29°15' W 094°60'3 6.6
2018-Jun-16 22:30N 29°17' W 094°57'3 6.6
2018-Jun-16 22:00N 29°18' W 094°53'4 7.0
2018-Jun-16 21:29N 29°20' W 094°50'3 5.9
2018-Jun-16 21:00N 29°23' W 094°49'12 6.9
2018-Jun-16 19:12N 29°34' W 094°55'3 7.1
2018-Jun-16 18:49N 29°36' W 094°57'2 7.1
2018-Jun-16 18:30N 29°38' W 094°58'4 7.0
2018-Jun-16 18:00N 29°41' W 094°59'1 0.1
2018-Jun-15 23:35N 29°42' W 095°01'1 7.9
2018-Jun-15 23:28N 29°42' W 094°60'4 7.7
2018-Jun-15 23:00N 29°39' W 094°58'4 8.0
2018-Jun-15 22:28N 29°35' W 094°56'9 8.2
2018-Jun-15 21:23N 29°27' W 094°51'4 8.1
2018-Jun-15 20:54N 29°24' W 094°49'3 6.7
2018-Jun-15 20:26N 29°21' W 094°50'3 7.8
2018-Jun-15 20:00N 29°18' W 094°53'3 6.8
2018-Jun-15 19:31N 29°17' W 094°56'3 6.4
2018-Jun-15 19:00N 29°16' W 094°60'4 7.4
2018-Jun-15 18:31N 29°13' W 095°02'3 6.6
2018-Jun-15 18:01N 29°11' W 095°05'3 5.4
2018-Jun-15 17:30N 29°11' W 095°08'3 7.0
2018-Jun-15 17:00N 29°13' W 095°12'2 4.5
2018-Jun-15 16:28N 29°15' W 095°13'0 0.1
2018-Jun-15 16:00N 29°14' W 095°13'0 0.0
2018-Jun-15 14:57N 29°14' W 095°13'0 0.0
2018-Jun-15 14:30N 29°14' W 095°13'0 0.0
2018-Jun-15 14:00N 29°14' W 095°13'0 0.0
2018-Jun-15 13:30N 29°14' W 095°13'0 0.0
2018-Jun-15 13:00N 29°14' W 095°13'0 0.0
2018-Jun-15 12:30N 29°14' W 095°13'0 0.0
2018-Jun-15 12:00N 29°14' W 095°13'0 0.0
2018-Jun-15 11:30N 29°14' W 095°13'0 0.0
2018-Jun-15 11:00N 29°14' W 095°13'0 0.0
2018-Jun-15 10:30N 29°14' W 095°13'0 0.0
2018-Jun-15 09:57N 29°14' W 095°13'0 0.0
2018-Jun-15 09:30N 29°14' W 095°13'0 0.0
2018-Jun-15 09:00N 29°14' W 095°13'0 0.0
2018-Jun-15 08:30N 29°14' W 095°13'0 0.3
2018-Jun-15 08:00N 29°14' W 095°13'2 3.3
2018-Jun-15 07:30N 29°13' W 095°13'3 5.2
2018-Jun-15 07:00N 29°12' W 095°10'2 4.9
2018-Jun-15 06:30N 29°10' W 095°08'3 5.3
2018-Jun-15 06:00N 29°11' W 095°05'3 6.2
2018-Jun-15 05:30N 29°13' W 095°02'2 3.4
2018-Jun-15 05:00N 29°14' W 095°01'3 5.6
2018-Jun-15 04:30N 29°16' W 094°59'3 5.2
2018-Jun-15 04:00N 29°17' W 094°56'2 5.0
2018-Jun-15 03:30N 29°17' W 094°54'2 4.5
2018-Jun-15 03:00N 29°19' W 094°52'3 5.9
2018-Jun-15 02:30N 29°21' W 094°49'3 6.0
2018-Jun-15 02:00N 29°24' W 094°49'10 8.0
2018-Jun-15 00:41N 29°33' W 094°55'2 7.4
2018-Jun-15 00:28N 29°34' W 094°56'4 7.4
2018-Jun-14 23:58N 29°38' W 094°58'4 7.7
2018-Jun-14 23:30N 29°41' W 094°59'2 0.1
2018-Jun-14 05:26N 29°42' W 095°01'3 6.1
2018-Jun-14 04:52N 29°41' W 094°57'2 3.4
2018-Jun-14 04:18N 29°41' W 094°55'1 2.4
2018-Jun-14 04:00N 29°42' W 094°55'1 2.2
2018-Jun-14 03:30N 29°43' W 094°56'1 0.1
2018-Jun-13 17:07N 29°43' W 094°57'2 2.1
2018-Jun-13 16:13N 29°42' W 094°55'2 4.5
2018-Jun-13 15:50N 29°40' W 094°56'2 5.5
2018-Jun-13 15:25N 29°41' W 094°58'1 2.5
2018-Jun-13 15:01N 29°42' W 094°59'2 0.2
2018-Jun-13 05:51N 29°42' W 095°01'2 6.4
2018-Jun-13 05:30N 29°41' W 094°59'3 6.4
2018-Jun-13 05:00N 29°38' W 094°58'4 6.7
2018-Jun-13 04:29N 29°35' W 094°56'3 6.7
2018-Jun-13 04:00N 29°32' W 094°54'3 5.8
2018-Jun-13 03:30N 29°30' W 094°52'3 5.6
2018-Jun-13 02:58N 29°27' W 094°51'3 5.5
2018-Jun-13 02:29N 29°25' W 094°49'2 4.9
2018-Jun-13 01:59N 29°22' W 094°48'2 4.0
2018-Jun-13 01:30N 29°21' W 094°47'3 5.4
2018-Jun-13 01:00N 29°19' W 094°48'1 1.4
2018-Jun-13 00:28N 29°18' W 094°49'2 3.9
2018-Jun-13 00:00N 29°19' W 094°47'3 6.4
2018-Jun-12 23:30N 29°22' W 094°48'13 7.7
2018-Jun-12 21:53N 29°33' W 094°55'3 7.0
2018-Jun-12 21:30N 29°35' W 094°56'4 7.1
2018-Jun-12 21:00N 29°39' W 094°58'4 6.8
2018-Jun-12 20:21N 29°42' W 095°01'  

Dump ship's entire track history